Régionale MD (CDL) Annecy (74) - D

Date : 28/05/2011

Place Nom Licence Catégorie Club Temps CN à J-60 Points Différence Nouveau CN
1 HUMMEL-AZAIS Margaux 18432 D16 7403RA 0:23:52 4653 5913 +1260 5217
2 BEAUVISAGE Lauriane 11307 D18 7807IF 0:23:54 5841 5905 +64 6129
3 ROULLEAUX Noemie 8922 D18 9105IF 0:24:42 5222 5714 +492 5418
4 ROULLEAUX Julie 11559 D16 9105IF 0:25:00 4313 5645 +1332 4466
5 DEVRIEUX Naïs 7672 D16 4203RA 0:25:37 4394 5509 +1115 4973
6 HABERKORN Chloé 10396 D16 2105BO 0:25:40 4277 5499 +1222 5340
7 BONNAVEIRA Fabien 23282 H14 2606RA 0:25:53 2998 5453 +2455 3393
8 LOTERIE Laurine 7045 D18 5907NO 0:26:17 4779 5370 +591 5256
9 MOREAU Noé 17929 H14 2605RA 0:26:46 3430 5273 +1843 4153
10 MOISSET Jacques 2328 H60 7403RA 0:28:07 5590 5020 -570 5337
11 BODY Mathilde 10184 D16 7305RA 0:28:28 4107 4958 +851 4646
12 DREANO Benjamin 22575 H14 9105IF 0:28:28 3603 4958 +1355 3696
13 PERRIN Mathieu 8976 H14 4201RA 0:28:33 3058 4943 +1885 3977
14 PONCET Jean-Pierre 16756 H60 3913FC 0:29:03 5541 4858 -683 5143
15 BOULESTREAU Zélie 11309 D16 2904BR 0:29:06 5580 4850 -730 6029
16 MATHIS Martin 20315 H14 5407LO 0:29:16 4212 4822 +610 4466
17 MAGDINIER Gilles 1635 H60 1307PR 0:29:41 3743 4755 +1012 3880
18 PICAZO Marie 16555 D14 8405PR 0:29:50 3358 4731 +1373 3596
19 VUILLEMIN Pauline 17171 D14 2508FC 0:30:09 3163 4681 +1518 3375
20 BIHEL Julia 14738 D18 4203RA 0:30:16 3621 4663 +1042 4409
21 DEJARDIN Emilie 10863 D18 0404PR 0:31:05 3434 4540 +1106 4209
22 COUPAT Gerard 146 H60 2606RA 0:31:06 5285 4538 -747 5074
23 MAISONNEUVE Valentine 16357 D16 4203RA 0:31:24 3797 4495 +698 4499
24 VAGNER Christine 3651 D55 5702LO 0:32:13 4714 4381 -333 4709
25 SOGNO Martin 14950 H14 1307PR 0:32:43 4444 4314 -130 4444
26 BUHRE Anders 7430 H65 0615AZ 0:32:51 4660 4296 -364 4266
27 BERRARD Anna 19762 D14 2607RA 0:33:27 2562 4219 +1657 2669
28 DENAIX Lou 7711 D16 7403RA 0:33:41 4432 4190 -242 4798
29 BONDIVENNE Perrine 8914 D16 6408AQ 0:33:44 3513 4184 +671 4171
30 BATTISTA Clement 17545 H14 3308AQ 0:33:53 3772 4165 +393 3977
31 COLOMBET Christian 3163 H65 2108BO 0:33:58 4892 4155 -737 5019
32 LAVILLE Julien 16547 H14 1307PR 0:33:58 4071 4155 +84 4125
33 HANAUER Florence 20408 D14 6806AL 0:34:03 3535 4145 +610 4037
34 BONNET Christine 2400 D55 5402LO 0:34:07 4524 4137 -387 4483
35 POURRE Jeremi 14273 H14 2508FC 0:34:29 2955 4093 +1138 3435
36 TOULIER ANCIAN Tom 18165 H14 6913RA 0:35:15 2328 4004 +1676 2314
37 GIRARD Lucille 19689 D16 3705CE 0:35:19 3742 3996 +254 4300
38 LARGILLÈRE Nicolas 18213 H14 0207PI 0:35:41 3177 3955 +778 3580
39 DERIAZ Samson 11842 H14 2105BO 0:35:49 3746 3940 +194 3845
40 ROBERT Christian 1086 H65 7004FC 0:36:01 4978 3919 -1059 4895
41 MARTINEZ Pierre 14394 H14 4012AQ 0:36:06 5607 3910 -1697 4848
42 GOLMARD Christian 2669 H65 2101BO 0:36:18 3888 4088
43 MORLON Louise 7788 D16 5702LO 0:36:45 3718 3840 +122 3780
44 POINSIGNON Elise 9976 D18 5402LO 0:36:49 4720 3833 -887 4836
45 DELENNE Camilla 13800 D14 1307PR 0:37:15 3461 3789 +328 3608
46 DUBROCA Monique 633 D55 3308AQ 0:37:30 4395 3764 -631 4188
47 GRANDADAM Robin 22262 H14 6804AL 0:38:21 2390 3680 +1290 2806
48 DROIN Solène 17925 D14 4201RA 0:38:31 3488 3664 +176 3749
49 FONTAINE Helise 22962 D18 5907NO 0:38:32 3494 3663 +169 3890
50 BASTARD Robert 3060 H60 6911RA 0:38:53 4353 3630 -723 3609
51 VUITTON Marie 18842 D14 6911RA 0:38:55 2544 3627 +1083 2845
52 CIRAUDO Andrea 15582 D18 5907NO 0:39:08 3078 3606 +528 3357
53 LAFARGE Emeline 17418 D16 7403RA 0:39:11 3723 3602 -121 3537
54 PICHARD Adrien 16456 H14 6911RA 0:39:11 2414 3602 +1188 2414
55 COMBET Annie 813 D50 4203RA 0:39:15 3852 3596 -256 4131
56 ANNE Roger 1673 H60 0111RA 0:39:21 3700 3587 -113 4265
57 SINIBALDI Marc 1347 H65 3801RA 0:39:25 5011 3581 -1430 5011
58 CAMPOS J-Pierre 1739 H60 8302AZ 0:39:42 4428 3555 -873 4573
59 ELIAS Pauline 16137 D14 1307PR 0:39:44 3336 3552 +216 3546
60 COURNUT Alain 626 H60 3308AQ 0:39:58 4739 3531 -1208 4843
61 BASSET Juliette 12398 D14 6911RA 0:40:02 2344 3525 +1181 2999
62 RIVOLLIER Isaline 22451 D16 4201RA 0:40:24 2530 3493 +963 3346
63 PERE Catherine 2730 D50 2105BO 0:40:27 3679 3489 -190 3790
64 NICOLAS Léa 18641 D18 7407RA 0:40:47 2085 3461 +1376 1855
65 JOURDAN Aurélien 23285 H14 2606RA 0:40:55 2551 3449 +898 2459
66 VALDENAIRE Mathilde 17487 D18 8807LO 0:40:59 3818 3444 -374 4289
67 RICHAUD Alain 4156 H65 8302AZ 0:41:03 4471 3438 -1033 4609
68 LOUAT Aime 12192 H60 8903BO 0:41:16 4552 3420 -1132 4782
69 ANTOINE Regis 1276 H70 7108BO 0:41:20 3819 3415 -404 3723
70 GODEFROY Simon 13926 H14 7707IF 0:41:22 3128 3412 +284 3203
71 MOUYON Elisa 20101 D16 2606RA 0:41:45 3881 3380 -501 3652
72 DEBARBIEUX Julie 24574 D16 2108BO 0:41:55 3367 2169
73 CAMPBELL Jane 17406 D50 7807IF 0:42:00 4621 3360 -1261 4621
74 BORNARD Julie 9402 D16 7305RA 0:42:10 3166 3347 +181 3334
75 PETER-JAN Lucile 19276 D16 3705CE 0:42:41 3678 3307 -371 4024
76 HABAUZIT Quentin 23281 H16 2606RA 0:42:54 2484 3290 +806 3011
77 GIRARD Clarisse 22476 D14 2508FC 0:42:56 2122 3287 +1165 2416
78 BONORA Marine 11542 D16 6906RA 0:43:31 2344 3243 +899 3472
79 MASCARELL Henri 8928 H60 6911RA 0:43:38 5175 3235 -1940 5175
80 VALETTE Marion 10430 D14 6913RA 0:43:55 2938 3214 +276 3226
81 JOUNEAU Agathe 14402 D14 3810RA 0:44:46 2070 3153 +1083 2728
82 CHAILLARD Dana 12045 D14 7305RA 0:44:46 2224 3153 +929 2521
83 GUNTHER Marie-Christine 7983 D50 2109BO 0:45:21 4698 3112 -1586 4807
84 THIEBAULT J-Philippe 5533 H60 6804AL 0:45:21 3354 3112 -242 3750
85 MAIRE Candice 20170 D16 8807LO 0:45:23 3021 3110 +89 3170
86 BIHEL Jeanne 23728 D14 4203RA 0:45:36 3095 2420
87 MARTIN Pascale 23568 D50 7512IF 0:46:00 3317 3068 -249 4260
88 MICHEL GaËtan 20045 H14 2606RA 0:46:04 3064 2288
89 CAILLET Véronique 11388 D50 2109BO 0:46:11 3716 3056 -660 3857
90 REYNAUD Renée 8868 D50 6307AU 0:46:15 4183 3052 -1131 4478
91 MEJEAN Hugues 23666 H14 2606RA 0:46:44 3020 2899
92 LORRE Annie 1756 D55 0615AZ 0:47:06 3750 2996 -754 3706
93 BOUCHERLE Ghislaine 4479 D60 3801RA 0:47:08 2493 2994 +501 3074
94 FALGA Beatrice 12403 D16 6911RA 0:47:15 2513 2987 +474 2465
95 BENACEK Vaclav 2368 H65 6806AL 0:47:20 3861 2982 -879 3861
96 VERDIN Alix 15276 D16 7109BO 0:47:45 3457 2956 -501 3734
97 BRUNEL Marie-Jo 8761 D55 8903BO 0:47:51 3969 2949 -1020 3866
98 POURRE Marion 10077 D18 2508FC 0:48:02 3871 2938 -933 3903
99 ABISSE Jacques 703 H65 2508FC 0:48:30 4201 2910 -1291 3854
100 FALCOZ Estelle 20410 D16 7305RA 0:48:52 3619 2888 -731 3272
101 BOURRIN M-Francoise 807 D55 4203RA 0:49:15 2621 2866 +245 2947
102 RAUCOULES Christine 258 D55 3811RA 0:49:42 2168 2840 +672 2639
103 BESTEL Sandra 10758 D16 9105IF 0:50:10 2913 2813 -100 3032
104 SZNAIDER Patrick 3556 H65 0615AZ 0:50:27 3891 2797 -1094 3611
105 DUPOIRIEUX Sophie 10496 D50 8807LO 0:50:44 3398 2782 -616 3520
106 BAUDOIN Jean-Paul 16352 H60 0615AZ 0:51:24 4156 2746 -1410 4281
107 ANNE Brigitte 1672 D60 0111RA 0:51:34 3455 2737 -718 3396
108 WOLZ Aymeric 20973 H14 2508FC 0:51:38 2846 2733 -113 3894
109 DUFOUR Marcel 2343 H65 2604RA 0:51:48 4220 2725 -1495 4199
110 LAURENT ELODIE 24671 D14 2606RA 0:51:51 2722 1647
111 BERRARD Tom 19761 H14 2607RA 0:52:23 1907 2694 +787 2631
112 PERONNO Annie 9477 D50 2104BO 0:52:38 3512 2681 -831 3439
113 GIBIAT Danielle 3547 D55 8405PR 0:52:46 3396 2675 -721 3380
114 MIOLLANY Alex 18136 H14 7404RA 0:52:48 1355 2673 +1318 1864
115 BASSET Fiona 23384 D16 6911RA 0:52:53 2394 2669 +275 2507
116 ARMBRUSTER Marie 2952 D50 2508FC 0:52:59 3728 2664 -1064 3874
117 CAMAS Mandye 19238 D16 5907NO 0:53:00 3774 2663 -1111 4464
118 COURSIER Antoine 21436 H14 2605RA 0:53:22 1717 2645 +928 2480
119 JAGLE Jean-Marc 3512 H65 0111RA 0:53:37 2632 2527
120 CORDIER Mathilde 22714 D18 7407RA 0:54:02 1554 2612 +1058 0
121 ABISSE Gisele 701 D65 2508FC 0:54:08 3025 2607 -418 3130
122 DUDOIGNON Chloé 18089 D14 2605RA 0:54:57 1980 2568 +588 2374
123 LAZAROWICZ Richard 3600 H60 7512IF 0:55:15 3490 2554 -936 3546
124 VUILLET Christian 2712 H60 2105BO 0:55:19 4755 2551 -2204 4705
125 GOLMARD Dominique 2670 H60 2101BO 0:55:21 3811 2550 -1261 4736
126 BOUVERET Michelle 12102 D55 2517FC 0:55:34 3213 2540 -673 3529
127 DELI Francoise 1152 D55 8311AZ 0:55:35 3933 2539 -1394 3991
128 DI ROCCO Dorina 21483 D50 1303PR 0:55:39 3240 2536 -704 2995
129 DEVILLE Nelly 2401 D60 5402LO 0:55:55 4511 2524 -1987 4861
130 RIFFARD J-Claude 2445 H70 5702LO 0:56:13 3101 2511 -590 3085
131 LUTHRINGER Coline 10091 D16 8809LO 0:57:29 3263 2455 -808 3560
132 JEANPIERRE M-Therese 3302 D65 8809LO 0:57:30 3105 2454 -651 3171
133 CERET Martine 4597 D55 4203RA 0:57:35 2520 2451 -69 3054
134 LOCUSSE Robert 2530 H60 5703LO 0:57:39 4522 2448 -2074 4707
135 DIEUDONNE Madeleine 1380 D60 7808IF 0:57:39 3926 2448 -1478 3943
136 KASTENSSON Hedda 20616 D14 0615AZ 0:57:40 2234 2447 +213 2393
137 ROBERT Francoise 6491 D60 6913RA 0:57:58 3655 2435 -1220 3821
138 BORNARD Fabienne 8427 D40 7305RA 0:58:14 3033 2424 -609 2758
139 PITAVAL Sylvie 12060 D50 4201RA 0:58:41 3372 2405 -967 3202
140 PERMINGEAT Helene 21054 D55 2606RA 0:58:58 2426 2393 -33 1778
141 HOSOTTE Chantal 4956 D55 6307AU 0:59:12 2384 0
142 ROCHE Jonathan 15417 H14 6911RA 0:59:31 2858 2371 -487 3126
143 GROSJEAN Pierre 12354 H70 6913RA 0:59:53 2546 2357 -189 2762
144 OUDIN M-Reine 7574 D60 6804AL 1:00:01 3726 2352 -1374 3701
145 BODY Agnes 10182 D45 7305RA 1:00:02 2771 2351 -420 2867
146 DI BRANGO Fabien 19311 H14 3801RA 1:00:11 1146 2345 +1199 1600
147 SCHELCHER Ginette 20409 D50 6806AL 1:00:25 3136 2336 -800 3180
148 GUIGUET Michel 455 H65 3801RA 1:00:41 3174 2326 -848 3876
149 DODIN Yves 4391 H60 8809LO 1:00:44 3476 2324 -1152 3451
150 JOURDAN Cindy 23286 D16 2606RA 1:02:27 2579 2260 -319 2483
151 ESTEBAN LUC 24673 H14 2606RA 1:02:36 2255 1264
152 COUPAT Catherine 145 D60 2606RA 1:02:47 2681 2248 -433 2541
153 DIEUDONNE Roland 1381 H65 7808IF 1:04:02 3487 2204 -1283 3451
154 BOURRIN Michel 809 H60 4203RA 1:04:42 2374 2181 -193 2498
155 FINO Béatrice 1674 D40 0111RA 1:05:13 2007 2164 +157 2266
156 DESAINTJAN Claude 2547 H70 6804AL 1:05:29 2920 2155 -765 3136
157 SUTTER Odile 2387 D50 6806AL 1:05:47 2753 2145 -608 2939
158 GOLMARD Chantal 2668 D55 2101BO 1:06:36 2544 2119 -425 3255
159 ENJOLRAS Emma 24672 D14 2606RA 1:06:47 2113 1304
160 JASTRZEBSKI Chloé 23790 D16 4203RA 1:07:02 2105 2002
161 COLLETER J-Claude 1264 H70 1705PC 1:07:15 3013 2099 -914 3180
162 BONHOMME Lise 24489 D21 6307AU 1:08:04 0 2073 1767
163 MARLIAC Quentin 19399 H14 4203RA 1:08:05 2419 2073 -346 2380
164 HITZ Rene 1883 H70 6804AL 1:08:24 1991 2063 +72 2929
165 GUIGUET Antoinette 454 D55 3801RA 1:09:27 2014 2032 +18 2087
166 CAZALA Dominique 14876 D50 3308AQ 1:11:00 2867 1988 -879 2735
167 DETAILLEUR Laure 24670 D14 2606RA 1:11:59 1961 1820
168 THIEBAUT Evelyne 16129 D55 5702LO 1:12:21 3088 1951 -1137 3088
169 OUDIN Emma 15488 D14 6804AL 1:12:32 1508 1946 +438 1701
170 EUZEN J-Paul 16403 H70 6911RA 1:13:38 3804 1917 -1887 4028
171 SCHMITT-POUPARD Florence 12056 D55 6913RA 1:13:49 3332 1912 -1420 3293
172 LOPEZ Svetlana 14786 D50 1303PR 1:16:40 3348 1841 -1507 2374
173 ASTRADE Blandine 15411 D40 7305RA 1:18:19 2448 1802 -646 2591
174 ROBERT Martine 1087 D60 7004FC 1:18:38 3698 1795 -1903 3600
175 DI BRANGO Pascal 19310 H45 3801RA 1:23:20 1762 1694 -68 1730
176 BERGER M-Jose 7182 D60 5703LO 1:24:13 3182 1676 -1506 3402
177 DIDIER Marion 19566 D14 7305RA 1:25:47 987 1645 +658 923
178 CHANEAC Nans 24527 H14 2606RA 1:26:38 1629 1733
179 DODIN Genevieve 4392 D60 8809LO 1:29:13 2387 1582 -805 2471
180 LE BIHAN Véronique 24321 D35 6307AU 1:30:03 1210 1567 +357 1386
181 CEYTE Ameline 24669 D14 2606RA 1:33:00 1518 1164
182 VERDIN Christine 15274 D50 7109BO 1:35:46 2581 1474 -1107 2455
183 TESTOUD Philippe 935 H70 7707IF 1:36:59 3446 1455 -1991 3405
184 MOISSET Nicole 2329 D50 7403RA 1:38:13 2996 1437 -1559 3360
185 RIFFARD M-Lucie 2446 D65 5702LO 1:38:20 2758 1435 -1323 2942
186 DI BRANGO Corinne 21407 D45 3801RA 1:42:20 1379 1230
187 GUET Martine 11810 D55 6906RA 1:45:55 2769 1332 -1437 2792
188 BOUCHERLE J-Xavier 5678 H60 3801RA 1:50:30 1817 1277 -540 1652
189 GROSJEAN A-Marie 12059 D70 6913RA 2:03:06 2666 1146 -1520 2737
190 MINARD Agnès 4321 D50 2109BO 2:08:06 1517 1102 -415 1588
191 BAGUEREY Catherine 4290 D50 6804AL 2:29:00 0 947 1808
BORNARD Nicolas 9403 H14 7305RA pm 2425 0 3144
COULON Annick 10073 D60 0615AZ pm 2399 0 2399
VILLEDIEU Martine 13752 D55 6913RA pm 3659 0 3756
GATY Daniele 841 D55 4203RA pm 4206 0 3809
BAUDOIN Annie 16634 D60 0615AZ pm 2634 0 2729
OUBRIER Marie Line 18854 D55 2604RA pm 1575 0 1368
BREMAUD Veronique 5804 D50 1202MP pm 2555 0 2515